Kinross, Iowa
Current Conditions -  °F | °C
As of 7:35 AM on Thursday 23 Oct 2014 (Local Time) from KOOA Reporting Station
Broken Clouds Broken Clouds  
Wind Chill: 47°   Ceiling: 11000
Heat Index: 49°   Visibility: 10mi
Dew Point: 44°   Wind: 6mph
Humidity: 80%   Direction: 160°SSE
Pressure: 30.06"   Gusts: NA
Location:  41.4707°N, 92.1243°W
Report Text: KOOA 231235Z AUTO 16005KT 10SM SCT070 SCT090 BKN110 10/06 A3006 RMK AO2 T00970064
Loading
Personal Weather Stations






























Interactive Weather Map
Tropical Storm Tracking
New forecast layout! Learn more

10-Day Weather Forecast

Advertisements
Track Severe Weather on mobile